Time;durP1;ratioP1;P1;durP2;ratioP2;P2;SDS_P1;SDS_P2;PMS_P1;PMS_P2;Temp;Humidity;BMP_temperature;BMP_pressure;BME280_temperature;BME280_humidity;BME280_pressure;Samples;Min_cycle;Max_cycle;Signal;HPM_P1;HPM_P2
2023/08/11 00:01:34;;;;;;;9.87;4.30;;;15.10;99.90;;;;;;5036306;28;20192;-80
2023/08/11 00:04:00;;;;;;;5.67;3.87;;;15.10;99.90;;;;;;5051320;28;20245;-80
2023/08/11 00:06:26;;;;;;;5.30;4.13;;;15.10;99.90;;;;;;5051292;28;20647;-80
2023/08/11 00:08:54;;;;;;;4.03;3.70;;;15.10;99.90;;;;;;5036058;28;20175;-81
2023/08/11 00:11:20;;;;;;;9.67;4.20;;;15.00;99.90;;;;;;5036041;28;20258;-80
2023/08/11 00:13:45;;;;;;;5.90;3.77;;;14.90;99.90;;;;;;5036602;28;20173;-81
2023/08/11 00:16:12;;;;;;;10.13;3.83;;;15.00;99.90;;;;;;5036440;28;20172;-80
2023/08/11 00:18:37;;;;;;;9.70;4.10;;;15.00;99.90;;;;;;5050805;28;20172;-80
2023/08/11 00:21:03;;;;;;;5.30;4.03;;;14.90;99.90;;;;;;5050680;28;20203;-79
2023/08/11 00:23:30;;;;;;;6.53;4.00;;;14.90;99.90;;;;;;5035755;28;20172;-80
2023/08/11 00:25:55;;;;;;;7.37;4.03;;;14.90;99.90;;;;;;5049521;28;20253;-80
2023/08/11 00:28:21;;;;;;;6.60;4.37;;;14.90;99.90;;;;;;5051555;28;20200;-80
2023/08/11 00:30:46;;;;;;;5.00;4.13;;;14.90;99.90;;;;;;5050958;28;20236;-81
2023/08/11 00:33:12;;;;;;;5.90;3.83;;;14.90;99.90;;;;;;5035403;28;20168;-81
2023/08/11 00:35:40;;;;;;;9.60;4.07;;;14.90;99.90;;;;;;5051321;28;20552;-80
2023/08/11 00:38:05;;;;;;;9.13;4.03;;;14.80;99.90;;;;;;5050989;28;20226;-81
2023/08/11 00:40:31;;;;;;;5.53;4.10;;;14.80;99.90;;;;;;5035277;28;20191;-80
2023/08/11 00:42:56;;;;;;;4.10;3.70;;;14.80;99.90;;;;;;5036298;28;20694;-79
2023/08/11 00:45:22;;;;;;;11.03;3.87;;;14.80;99.90;;;;;;5036294;28;20165;-80
2023/08/11 00:47:48;;;;;;;9.57;4.20;;;14.80;99.90;;;;;;5050188;28;20183;-80
2023/08/11 00:50:17;;;;;;;11.43;3.93;;;14.80;99.90;;;;;;5050246;28;20207;-80
2023/08/11 00:52:45;;;;;;;8.10;3.97;;;14.70;99.90;;;;;;5050747;28;20176;-80
2023/08/11 00:55:12;;;;;;;4.43;4.03;;;14.70;99.90;;;;;;5050629;28;20187;-80
2023/08/11 00:57:38;;;;;;;7.27;4.30;;;14.70;99.90;;;;;;5034135;28;20180;-80
2023/08/11 01:00:12;;;;;;;11.13;3.90;;;14.70;99.90;;;;;;5035536;28;20187;-80
2023/08/11 01:02:43;;;;;;;6.93;4.03;;;14.60;99.90;;;;;;5035189;28;20640;-80
2023/08/11 01:05:11;;;;;;;7.07;4.47;;;14.60;99.90;;;;;;5035951;28;20176;-81
2023/08/11 01:07:52;;;;;;;8.00;3.90;;;14.60;99.90;;;;;;5034842;28;20632;-80
2023/08/11 01:10:41;;;;;;;5.43;4.20;;;14.60;99.90;;;;;;5033911;28;20192;-81
2023/08/11 01:13:18;;;;;;;5.47;4.00;;;14.60;99.90;;;;;;5035460;28;20247;-81
2023/08/11 01:16:04;;;;;;;15.40;4.73;;;14.60;99.90;;;;;;5050293;28;20186;-80
2023/08/11 01:18:30;;;;;;;8.07;4.47;;;14.60;99.90;;;;;;5034045;28;20605;-81
2023/08/11 01:21:03;;;;;;;6.53;4.30;;;14.60;99.90;;;;;;5034906;28;20279;-80
2023/08/11 01:23:29;;;;;;;5.93;3.90;;;14.60;99.90;;;;;;5035013;28;20632;-80
2023/08/11 01:25:56;;;;;;;4.63;4.20;;;14.50;99.90;;;;;;5050681;28;20179;-80
2023/08/11 01:28:22;;;;;;;6.87;3.90;;;14.50;99.90;;;;;;5050461;28;20239;-81
2023/08/11 01:30:50;;;;;;;7.97;3.93;;;14.50;99.90;;;;;;5035496;28;20204;-81
2023/08/11 01:33:16;;;;;;;9.30;4.33;;;14.40;99.90;;;;;;5035571;28;20230;-80
2023/08/11 01:35:41;;;;;;;5.47;3.97;;;14.40;99.90;;;;;;5035312;28;20205;-80
2023/08/11 01:38:10;;;;;;;9.00;3.93;;;14.40;99.90;;;;;;5038486;28;20598;-80
2023/08/11 01:40:37;;;;;;;12.80;4.17;;;14.40;99.90;;;;;;5038581;28;20220;-80
2023/08/11 01:43:05;;;;;;;4.83;3.70;;;14.40;99.90;;;;;;5038449;28;20226;-80
2023/08/11 01:45:31;;;;;;;5.77;3.83;;;14.40;99.90;;;;;;5039411;28;20172;-81
2023/08/11 01:47:58;;;;;;;6.40;3.77;;;14.30;99.90;;;;;;5054745;28;20555;-81
2023/08/11 01:50:26;;;;;;;10.80;4.30;;;14.30;99.90;;;;;;5039338;28;20196;-80
2023/08/11 01:52:54;;;;;;;10.33;4.47;;;14.30;99.90;;;;;;5054556;28;20183;-81
2023/08/11 01:55:20;;;;;;;6.60;3.90;;;14.30;99.90;;;;;;5040780;28;20226;-81
2023/08/11 01:57:46;;;;;;;7.67;4.53;;;14.20;99.90;;;;;;5055217;28;20204;-80
2023/08/11 02:00:16;;;;;;;7.30;3.87;;;14.20;99.90;;;;;;5040825;28;20176;-81
2023/08/11 02:02:43;;;;;;;9.03;3.87;;;14.20;99.90;;;;;;5039894;28;20328;-81
2023/08/11 02:05:11;;;;;;;11.40;4.47;;;14.30;99.90;;;;;;5040679;28;20240;-81
2023/08/11 02:07:38;;;;;;;5.60;3.97;;;14.20;99.90;;;;;;5041183;28;20176;-81
2023/08/11 02:10:04;;;;;;;5.43;3.97;;;14.20;99.90;;;;;;5042409;28;20194;-80
2023/08/11 02:12:30;;;;;;;8.97;3.93;;;14.20;99.90;;;;;;5046161;28;20199;-80
2023/08/11 02:14:55;;;;;;;11.93;5.00;;;14.20;99.90;;;;;;5041300;28;20552;-80
2023/08/11 02:17:21;;;;;;;10.77;4.30;;;14.20;99.90;;;;;;5038465;28;20195;-81
2023/08/11 02:19:47;;;;;;;6.30;3.73;;;14.20;99.90;;;;;;5053944;28;20199;-80
2023/08/11 02:22:13;;;;;;;7.30;3.77;;;14.10;99.90;;;;;;5052723;28;20196;-80
2023/08/11 02:24:39;;;;;;;8.53;3.73;;;14.10;99.90;;;;;;5053092;28;20704;-80
2023/08/11 02:27:04;;;;;;;7.50;4.03;;;14.10;99.90;;;;;;5037913;28;20259;-81
2023/08/11 02:29:30;;;;;;;6.50;4.30;;;14.10;99.90;;;;;;5038052;28;20266;-81
2023/08/11 02:31:55;;;;;;;10.20;3.93;;;14.30;99.90;;;;;;5038694;28;20204;-81
2023/08/11 02:34:21;;;;;;;5.20;3.80;;;14.10;99.90;;;;;;5036945;28;20181;-81
2023/08/11 02:36:47;;;;;;;11.43;3.67;;;14.00;99.90;;;;;;5038492;28;20183;-81
2023/08/11 02:39:13;;;;;;;11.23;3.77;;;14.10;99.90;;;;;;5053544;28;20175;-80
2023/08/11 02:41:38;;;;;;;6.30;3.90;;;14.00;99.90;;;;;;5038263;28;20251;-81
2023/08/11 02:44:04;;;;;;;8.73;3.90;;;14.00;99.90;;;;;;5036259;28;20256;-80
2023/08/11 02:46:31;;;;;;;6.97;3.73;;;14.00;99.90;;;;;;5038218;28;20176;-81
2023/08/11 02:48:56;;;;;;;7.63;4.27;;;14.00;99.90;;;;;;5051699;28;20272;-80
2023/08/11 02:51:22;;;;;;;6.77;3.47;;;14.00;99.90;;;;;;5053551;28;20729;-80
2023/08/11 02:53:48;;;;;;;8.13;3.77;;;14.00;99.90;;;;;;5057057;28;20171;-81
2023/08/11 02:56:15;;;;;;;4.93;3.70;;;14.00;99.90;;;;;;5057083;28;20214;-81
2023/08/11 02:58:42;;;;;;;6.37;3.87;;;13.90;99.90;;;;;;5057309;28;20216;-81
2023/08/11 03:01:07;;;;;;;9.37;3.87;;;13.90;99.90;;;;;;5040291;28;20219;-80
2023/08/11 03:03:33;;;;;;;8.83;3.30;;;13.90;99.90;;;;;;5037949;28;20255;-80
2023/08/11 03:05:58;;;;;;;6.63;3.70;;;13.90;99.90;;;;;;5057817;28;20225;-80
2023/08/11 03:08:24;;;;;;;6.30;3.40;;;13.90;99.90;;;;;;5055976;28;20666;-80
2023/08/11 03:10:50;;;;;;;6.90;4.13;;;13.90;99.90;;;;;;5055196;28;20215;-80
2023/08/11 03:13:16;;;;;;;10.73;3.50;;;13.90;99.90;;;;;;5055604;28;20235;-80
2023/08/11 03:15:42;;;;;;;7.23;3.57;;;13.90;99.90;;;;;;5038748;28;20177;-80
2023/08/11 03:18:08;;;;;;;6.30;3.33;;;13.80;99.90;;;;;;5052676;28;20237;-80
2023/08/11 03:20:33;;;;;;;7.43;3.70;;;13.80;99.90;;;;;;5051926;28;20201;-81
2023/08/11 03:22:59;;;;;;;6.70;3.60;;;13.80;99.90;;;;;;5037340;28;20214;-81
2023/08/11 03:25:24;;;;;;;5.70;3.70;;;13.80;99.90;;;;;;5037137;28;20176;-81
2023/08/11 03:27:50;;;;;;;11.27;4.00;;;13.70;99.90;;;;;;5050809;28;20198;-81
2023/08/11 03:30:16;;;;;;;8.00;3.63;;;13.70;99.90;;;;;;5036214;28;20195;-81
2023/08/11 03:32:41;;;;;;;7.53;3.70;;;13.70;99.90;;;;;;5036135;28;20582;-80
2023/08/11 03:35:07;;;;;;;4.10;3.70;;;13.70;99.90;;;;;;5035545;28;20169;-80
2023/08/11 03:37:34;;;;;;;6.67;3.90;;;13.70;99.90;;;;;;5035673;28;20178;-81
2023/08/11 03:40:00;;;;;;;5.67;3.60;;;13.70;99.90;;;;;;5035182;28;20259;-80
2023/08/11 03:42:25;;;;;;;7.83;3.73;;;13.70;99.90;;;;;;5036774;28;20551;-80
2023/08/11 03:44:51;;;;;;;4.70;3.83;;;13.70;99.90;;;;;;5037388;28;20192;-81
2023/08/11 03:47:20;;;;;;;5.97;3.27;;;13.60;99.90;;;;;;5056986;28;20172;-81
2023/08/11 03:49:46;;;;;;;5.03;3.93;;;13.60;99.90;;;;;;5055267;28;20179;-81
2023/08/11 03:52:12;;;;;;;7.17;3.30;;;13.60;99.90;;;;;;5055134;28;20203;-81
2023/08/11 03:54:38;;;;;;;5.03;3.57;;;13.60;99.90;;;;;;5056769;28;20175;-80
2023/08/11 03:57:04;;;;;;;7.00;3.53;;;13.60;99.90;;;;;;5056798;28;20183;-80
2023/08/11 03:59:30;;;;;;;6.40;3.20;;;13.60;99.90;;;;;;5055062;28;20180;-80
2023/08/11 04:01:55;;;;;;;4.33;3.23;;;13.60;99.90;;;;;;5054370;28;20195;-82
2023/08/11 04:04:21;;;;;;;7.10;3.63;;;13.60;99.90;;;;;;5054310;28;20551;-81
2023/08/11 04:06:47;;;;;;;7.50;3.50;;;13.60;99.90;;;;;;5056804;28;20171;-81
2023/08/11 04:09:12;;;;;;;7.03;3.70;;;13.50;99.90;;;;;;5057489;28;20254;-81
2023/08/11 04:11:38;;;;;;;7.43;3.73;;;13.50;99.90;;;;;;5057639;28;20206;-81
2023/08/11 04:14:04;;;;;;;6.20;3.90;;;13.50;99.90;;;;;;5055664;28;20182;-80
2023/08/11 04:16:29;;;;;;;12.27;4.03;;;13.50;99.90;;;;;;5054898;28;20179;-81
2023/08/11 04:18:55;;;;;;;8.77;3.80;;;13.50;99.90;;;;;;5055731;28;20193;-81
2023/08/11 04:21:22;;;;;;;7.67;3.47;;;13.50;99.90;;;;;;5057798;28;20199;-81
2023/08/11 04:23:48;;;;;;;5.73;3.43;;;13.50;99.90;;;;;;5057702;28;20168;-81
2023/08/11 04:26:14;;;;;;;5.40;3.70;;;13.50;99.90;;;;;;5057221;28;20187;-80
2023/08/11 04:28:43;;;;;;;12.50;4.00;;;13.50;99.90;;;;;;5057473;28;20262;-81
2023/08/11 04:31:09;;;;;;;7.57;3.70;;;13.50;99.90;;;;;;5065237;28;20199;-79
2023/08/11 04:33:35;;;;;;;12.30;4.33;;;13.50;99.90;;;;;;5071696;28;20178;-79
2023/08/11 04:36:02;;;;;;;7.30;3.50;;;13.50;99.90;;;;;;5059825;28;20172;-79
2023/08/11 04:38:30;;;;;;;8.07;3.43;;;13.50;99.90;;;;;;5055529;28;20171;-79
2023/08/11 04:40:57;;;;;;;7.77;3.90;;;13.50;99.90;;;;;;5054978;28;20740;-79
2023/08/11 04:43:22;;;;;;;5.23;3.47;;;13.40;99.90;;;;;;5055183;28;20688;-80
2023/08/11 04:45:49;;;;;;;4.20;3.47;;;13.40;99.90;;;;;;5053643;28;20270;-80
2023/08/11 04:48:14;;;;;;;5.43;3.47;;;13.40;99.90;;;;;;5054727;28;20246;-80
2023/08/11 04:50:40;;;;;;;8.43;4.27;;;13.50;99.90;;;;;;5053886;28;20315;-80
2023/08/11 04:53:06;;;;;;;6.67;4.17;;;13.40;99.90;;;;;;5053810;28;20670;-79
2023/08/11 04:55:32;;;;;;;4.27;3.47;;;13.40;99.90;;;;;;5055524;28;20171;-80
2023/08/11 04:57:59;;;;;;;5.63;3.93;;;13.40;99.90;;;;;;5053661;28;20182;-80
2023/08/11 05:00:25;;;;;;;9.00;3.93;;;13.40;99.90;;;;;;5055476;28;20191;-80
2023/08/11 05:02:52;;;;;;;7.17;3.50;;;13.40;99.90;;;;;;5053455;28;20179;-80
2023/08/11 05:05:19;;;;;;;7.53;3.63;;;13.40;99.90;;;;;;5053730;28;20180;-79
2023/08/11 05:07:45;;;;;;;7.20;3.87;;;13.40;99.90;;;;;;5055073;28;20167;-80
2023/08/11 05:10:13;;;;;;;8.07;3.80;;;13.40;99.90;;;;;;5055235;28;20184;-80
2023/08/11 05:12:38;;;;;;;7.90;3.93;;;13.40;99.90;;;;;;5057526;28;20287;-80
2023/08/11 05:15:05;;;;;;;7.00;4.00;;;13.40;99.90;;;;;;5059158;28;20195;-80
2023/08/11 05:17:31;;;;;;;8.97;4.57;;;13.50;99.90;;;;;;5059755;28;20172;-81
2023/08/11 05:19:57;;;;;;;7.53;3.70;;;13.50;99.90;;;;;;5057699;28;20274;-80
2023/08/11 05:22:23;;;;;;;4.90;3.50;;;13.50;99.90;;;;;;5058588;28;20202;-80
2023/08/11 05:24:48;;;;;;;6.17;3.83;;;13.50;99.90;;;;;;5057719;28;20179;-80
2023/08/11 05:27:15;;;;;;;4.67;4.10;;;13.60;99.90;;;;;;5057534;28;20567;-80
2023/08/11 05:29:45;;;;;;;5.83;3.90;;;13.60;99.90;;;;;;5059461;28;20187;-80
2023/08/11 05:32:11;;;;;;;3.80;3.50;;;13.60;99.90;;;;;;5058432;28;20203;-80
2023/08/11 05:34:36;;;;;;;5.70;3.70;;;13.60;99.90;;;;;;5057403;28;20247;-80
2023/08/11 05:37:03;;;;;;;8.87;3.60;;;13.70;99.90;;;;;;5059511;28;20203;-81
2023/08/11 05:39:28;;;;;;;4.50;3.60;;;13.70;99.90;;;;;;5061080;28;20637;-81
2023/08/11 05:41:54;;;;;;;6.90;3.30;;;13.70;99.90;;;;;;5060154;28;20234;-81
2023/08/11 05:44:19;;;;;;;8.23;3.47;;;13.70;99.90;;;;;;5059720;28;20190;-81
2023/08/11 05:46:45;;;;;;;7.03;3.80;;;13.80;99.90;;;;;;5059835;28;20179;-81
2023/08/11 05:49:11;;;;;;;6.77;3.93;;;13.70;99.90;;;;;;5061057;28;20176;-82
2023/08/11 05:51:36;;;;;;;4.10;3.40;;;13.80;99.90;;;;;;5060285;28;20212;-82
2023/08/11 05:54:02;;;;;;;11.87;4.13;;;13.80;99.90;;;;;;5058256;28;20183;-82
2023/08/11 05:56:27;;;;;;;6.17;3.67;;;13.90;99.90;;;;;;5058418;28;20229;-82
2023/08/11 05:58:53;;;;;;;8.63;3.60;;;13.90;99.90;;;;;;5059505;28;20191;-82
2023/08/11 06:01:18;;;;;;;8.13;3.50;;;13.90;99.90;;;;;;5058791;28;20290;-81
2023/08/11 06:03:44;;;;;;;5.27;3.87;;;13.90;99.90;;;;;;5060696;28;20266;-83
2023/08/11 06:06:10;;;;;;;10.37;3.57;;;14.00;99.90;;;;;;5059051;28;20180;-82
2023/08/11 06:08:35;;;;;;;4.63;3.50;;;14.00;99.90;;;;;;5058284;28;20251;-81
2023/08/11 06:11:01;;;;;;;4.27;3.23;;;14.00;99.90;;;;;;5058885;28;20265;-82
2023/08/11 06:13:27;;;;;;;4.23;3.03;;;14.10;99.90;;;;;;5057173;28;20186;-82
2023/08/11 06:15:52;;;;;;;5.40;3.40;;;14.20;99.90;;;;;;5058552;28;20175;-81
2023/08/11 06:18:18;;;;;;;6.03;3.20;;;14.30;99.90;;;;;;5059207;28;20172;-81
2023/08/11 06:20:44;;;;;;;4.47;3.10;;;14.40;99.90;;;;;;5059719;28;20223;-82
2023/08/11 06:23:10;;;;;;;6.33;3.67;;;14.50;99.90;;;;;;5059961;28;20164;-82
2023/08/11 06:25:36;;;;;;;3.67;3.20;;;14.60;99.90;;;;;;5059601;28;20616;-82
2023/08/11 06:28:02;;;;;;;4.03;2.90;;;14.70;99.90;;;;;;5058112;28;20191;-82
2023/08/11 06:30:28;;;;;;;5.33;3.03;;;14.80;99.90;;;;;;5058653;28;20253;-82
2023/08/11 06:32:54;;;;;;;6.50;3.30;;;14.90;99.90;;;;;;5058216;28;20207;-82
2023/08/11 06:35:20;;;;;;;4.33;3.13;;;15.00;99.90;;;;;;5060620;28;20179;-82
2023/08/11 06:37:46;;;;;;;7.17;2.80;;;15.10;99.90;;;;;;5058866;28;20175;-83
2023/08/11 06:40:13;;;;;;;2.93;2.60;;;15.20;99.90;;;;;;5059582;28;20651;-82
2023/08/11 06:42:39;;;;;;;3.83;2.80;;;15.30;99.90;;;;;;5058046;28;20187;-82
2023/08/11 06:45:06;;;;;;;6.03;2.80;;;15.40;99.90;;;;;;5058039;28;20179;-82
2023/08/11 06:47:31;;;;;;;7.47;2.47;;;15.50;99.90;;;;;;5060029;28;20230;-81
2023/08/11 06:49:58;;;;;;;4.43;2.53;;;15.60;99.90;;;;;;5058204;28;20188;-81
2023/08/11 06:52:23;;;;;;;3.20;2.33;;;15.60;99.90;;;;;;5058329;28;20200;-82
2023/08/11 06:54:49;;;;;;;4.63;2.37;;;15.70;99.90;;;;;;5057481;28;20183;-83
2023/08/11 06:57:17;;;;;;;7.83;3.10;;;15.80;99.90;;;;;;5058677;28;20193;-82
2023/08/11 06:59:42;;;;;;;6.60;2.90;;;16.10;99.90;;;;;;5057357;28;20176;-83
2023/08/11 07:02:08;;;;;;;3.70;2.50;;;16.00;99.90;;;;;;5057173;28;20199;-81
2023/08/11 07:04:33;;;;;;;12.20;2.67;;;16.00;99.90;;;;;;5059105;28;20175;-83
2023/08/11 07:06:59;;;;;;;5.00;2.50;;;16.20;99.90;;;;;;5057228;28;20183;-82
2023/08/11 07:09:24;;;;;;;4.00;2.57;;;16.30;99.90;;;;;;5059425;28;20171;-82
2023/08/11 07:11:50;;;;;;;5.70;2.37;;;16.30;99.90;;;;;;5056802;28;20698;-83
2023/08/11 07:14:16;;;;;;;3.70;2.27;;;16.40;99.90;;;;;;5059298;28;20636;-83
2023/08/11 07:16:41;;;;;;;2.27;2.00;;;16.50;99.90;;;;;;5060656;28;20191;-82
2023/08/11 07:19:07;;;;;;;2.93;2.30;;;16.60;99.90;;;;;;5058283;28;20187;-82
2023/08/11 07:21:32;;;;;;;7.67;2.53;;;16.70;99.90;;;;;;5059516;28;20207;-82
2023/08/11 07:23:58;;;;;;;9.67;2.77;;;16.80;99.90;;;;;;5058709;28;20180;-82
2023/08/11 07:26:23;;;;;;;5.50;2.50;;;17.00;99.90;;;;;;5058963;28;20226;-82
2023/08/11 07:28:49;;;;;;;3.90;2.40;;;17.00;99.90;;;;;;5057868;28;20203;-83
2023/08/11 07:31:15;;;;;;;6.27;2.57;;;17.10;99.90;;;;;;5058532;28;20242;-83
2023/08/11 07:33:42;;;;;;;4.97;2.40;;;17.10;99.90;;;;;;5058516;28;20179;-83
2023/08/11 07:36:08;;;;;;;5.37;2.50;;;17.20;99.90;;;;;;5059796;28;20179;-83
2023/08/11 07:38:33;;;;;;;4.83;2.30;;;17.20;99.90;;;;;;5060605;28;20175;-82
2023/08/11 07:40:59;;;;;;;4.50;2.30;;;17.40;99.90;;;;;;5059001;28;20203;-83
2023/08/11 07:43:25;;;;;;;4.23;2.10;;;17.50;99.90;;;;;;5058282;28;20190;-83
2023/08/11 07:45:50;;;;;;;4.37;2.10;;;17.60;99.90;;;;;;5059050;28;20179;-83
2023/08/11 07:48:18;;;;;;;5.97;2.40;;;17.60;99.90;;;;;;5059576;28;20180;-82
2023/08/11 07:50:44;;;;;;;6.13;2.17;;;17.70;99.90;;;;;;5057237;28;20211;-82
2023/08/11 07:53:09;;;;;;;2.93;2.07;;;17.80;99.90;;;;;;5058901;28;20666;-83
2023/08/11 07:55:35;;;;;;;8.03;2.83;;;17.90;99.90;;;;;;5057320;28;20176;-83
2023/08/11 07:58:01;;;;;;;4.73;2.07;;;17.90;99.90;;;;;;5057436;28;20176;-84
2023/08/11 08:00:26;;;;;;;4.40;1.90;;;18.10;99.90;;;;;;5058964;28;20246;-82
2023/08/11 08:02:52;;;;;;;5.03;3.00;;;18.10;99.90;;;;;;5058622;28;20176;-82
2023/08/11 08:05:19;;;;;;;7.63;2.40;;;18.10;99.90;;;;;;5059576;28;20536;-83
2023/08/11 08:07:45;;;;;;;5.63;2.57;;;18.30;99.90;;;;;;5059269;28;20214;-83
2023/08/11 08:10:11;;;;;;;4.23;2.23;;;18.40;99.90;;;;;;5058189;28;20176;-83
2023/08/11 08:12:38;;;;;;;4.70;2.33;;;18.50;99.90;;;;;;5057061;28;20630;-84
2023/08/11 08:15:05;;;;;;;3.67;2.27;;;18.60;99.90;;;;;;5056877;28;20184;-83
2023/08/11 08:17:31;;;;;;;8.30;2.37;;;18.60;99.90;;;;;;5058344;28;20654;-84
2023/08/11 08:19:56;;;;;;;3.67;2.07;;;18.70;99.90;;;;;;5057659;28;20171;-84
2023/08/11 08:22:22;;;;;;;4.17;2.43;;;18.90;99.90;;;;;;5057173;28;20206;-83
2023/08/11 08:24:48;;;;;;;5.00;2.20;;;18.90;99.90;;;;;;5059075;28;20187;-83
2023/08/11 08:27:15;;;;;;;3.20;2.00;;;19.00;99.90;;;;;;5058589;28;20195;-83
2023/08/11 08:29:40;;;;;;;5.90;2.10;;;19.00;99.90;;;;;;5057866;28;20222;-83
2023/08/11 08:32:06;;;;;;;5.87;2.30;;;19.10;1.00;;;;;;5056881;28;20586;-83
2023/08/11 08:34:32;;;;;;;4.87;2.10;;;19.20;1.00;;;;;;5057159;28;20243;-83
2023/08/11 08:36:57;;;;;;;4.10;2.00;;;19.30;99.90;;;;;;5058815;28;20194;-83
2023/08/11 08:39:23;;;;;;;5.17;1.90;;;19.30;99.90;;;;;;5059082;28;20597;-83
2023/08/11 08:41:50;;;;;;;4.43;2.10;;;19.50;15.10;;;;;;5056949;28;20282;-83
2023/08/11 08:44:17;;;;;;;5.23;2.00;;;19.60;1.00;;;;;;5057566;28;20623;-83
2023/08/11 08:46:44;;;;;;;6.50;2.30;;;19.60;99.90;;;;;;5056178;28;20190;-83
2023/08/11 08:49:19;;;;;;;8.97;2.60;;;19.80;99.90;;;;;;5048419;28;20270;-83
2023/08/11 08:51:45;;;;;;;3.47;2.47;;;19.80;1.00;;;;;;5047449;28;20303;-82
2023/08/11 08:54:10;;;;;;;4.37;2.17;;;19.90;99.90;;;;;;5037421;28;20191;-83
2023/08/11 08:56:38;;;;;;;7.33;2.40;;;20.00;1.00;;;;;;5037251;28;20177;-82
2023/08/11 08:59:04;;;;;;;5.20;2.20;;;20.00;99.90;;;;;;5050001;28;20230;-83
2023/08/11 09:01:30;;;;;;;4.53;2.20;;;20.10;99.90;;;;;;5053961;28;20204;-83
2023/08/11 09:03:57;;;;;;;5.23;2.47;;;20.20;99.90;;;;;;5058916;28;20186;-84
2023/08/11 09:06:26;;;;;;;6.77;2.20;;;20.30;1.00;;;;;;5040494;28;20255;-83
2023/08/11 09:08:52;;;;;;;5.30;2.53;;;20.60;99.90;;;;;;5053924;28;20172;-81
2023/08/11 09:11:18;;;;;;;6.57;2.03;;;20.50;99.90;;;;;;5071447;28;20242;-82
2023/08/11 09:13:45;;;;;;;7.10;2.60;;;20.50;99.90;;;;;;5059973;28;20168;-83
2023/08/11 09:16:12;;;;;;;6.97;2.20;;;20.80;99.90;;;;;;5056532;28;20172;-83
2023/08/11 09:18:37;;;;;;;4.83;2.60;;;20.60;99.90;;;;;;5057478;28;20179;-82
2023/08/11 09:21:03;;;;;;;4.77;2.47;;;20.90;1.00;;;;;;5057077;28;20197;-83
2023/08/11 09:23:29;;;;;;;5.40;2.37;;;21.00;1.00;;;;;;5056961;28;20657;-82
2023/08/11 09:25:55;;;;;;;7.67;2.50;;;21.10;1.00;;;;;;5057028;28;20180;-83
2023/08/11 09:28:21;;;;;;;5.10;2.43;;;21.20;34.10;;;;;;5057973;28;20274;-83
2023/08/11 09:30:48;;;;;;;4.90;2.30;;;21.20;1.00;;;;;;5058587;28;20233;-81
2023/08/11 09:33:14;;;;;;;7.33;2.50;;;21.50;99.90;;;;;;5054806;28;20650;-81
2023/08/11 09:35:41;;;;;;;7.53;2.30;;;21.40;1.00;;;;;;5054841;28;20171;-81
2023/08/11 09:38:07;;;;;;;3.47;2.40;;;21.50;1.80;;;;;;5056122;28;20175;-81
2023/08/11 09:40:33;;;;;;;4.87;2.40;;;21.70;1.00;;;;;;5057989;28;20191;-83
2023/08/11 09:42:59;;;;;;;4.83;2.20;;;21.90;91.00;;;;;;5057272;28;20176;-83
2023/08/11 09:45:25;;;;;;;3.50;2.30;;;22.10;19.50;;;;;;5058053;28;20715;-84
2023/08/11 09:47:50;;;;;;;6.00;2.53;;;22.20;1.00;;;;;;5058739;28;20186;-84
2023/08/11 09:50:16;;;;;;;7.90;2.50;;;22.20;99.90;;;;;;5057318;28;20270;-83
2023/08/11 09:52:43;;;;;;;5.77;2.40;;;22.30;99.90;;;;;;5056971;28;20238;-83
2023/08/11 09:55:12;;;;;;;5.50;2.37;;;22.20;99.90;;;;;;5057135;28;20208;-82
2023/08/11 09:57:41;;;;;;;5.50;2.70;;;22.50;99.90;;;;;;5059840;28;20265;-82
2023/08/11 10:00:12;;;;;;;5.43;2.57;;;22.50;99.90;;;;;;5060775;28;20183;-83
2023/08/11 10:02:49;;;;;;;4.53;2.50;;;22.50;99.90;;;;;;5061091;28;20167;-83
2023/08/11 10:05:17;;;;;;;8.00;2.50;;;22.50;99.90;;;;;;5061647;28;20210;-84
2023/08/11 10:07:44;;;;;;;8.00;2.40;;;22.50;99.90;;;;;;5061832;28;20182;-83
2023/08/11 10:10:16;;;;;;;3.17;2.23;;;22.60;99.90;;;;;;5061601;28;20678;-83
2023/08/11 10:12:51;;;;;;;6.67;2.73;;;22.60;14.50;;;;;;5061050;28;20208;-84
2023/08/11 10:15:18;;;;;;;5.43;2.27;;;22.80;1.00;;;;;;5060922;28;20167;-83
2023/08/11 10:17:44;;;;;;;5.10;2.30;;;22.90;1.00;;;;;;5061709;28;20178;-83
2023/08/11 10:20:10;;;;;;;4.13;2.20;;;23.10;1.00;;;;;;5062591;28;20175;-82
2023/08/11 10:22:35;;;;;;;5.37;2.50;;;23.10;1.00;;;;;;5063987;28;20527;-83
2023/08/11 10:25:06;;;;;;;7.03;2.93;;;23.10;84.80;;;;;;5064286;28;20606;-85
2023/08/11 10:27:34;;;;;;;12.73;2.67;;;23.20;99.90;;;;;;5061547;28;20183;-84
2023/08/11 10:30:01;;;;;;;5.30;2.53;;;23.30;1.00;;;;;;5065554;28;20176;-83
2023/08/11 10:32:33;;;;;;;6.67;2.50;;;23.50;1.00;;;;;;5062262;28;20226;-83
2023/08/11 10:34:59;;;;;;;7.33;2.87;;;23.60;1.00;;;;;;5061287;28;20168;-82
2023/08/11 10:37:32;;;;;;;6.33;2.90;;;23.60;1.00;;;;;;5060035;28;20179;-83
2023/08/11 10:40:05;;;;;;;4.37;2.40;;;23.80;99.90;;;;;;5060630;28;20314;-83
2023/08/11 10:42:32;;;;;;;4.50;2.00;;;23.80;99.90;;;;;;5063267;28;20179;-84
2023/08/11 10:45:08;;;;;;;5.40;2.30;;;23.80;99.90;;;;;;5077957;28;20180;-85
2023/08/11 10:47:35;;;;;;;6.40;2.17;;;23.70;1.00;;;;;;5077143;28;20175;-83
2023/08/11 10:50:01;;;;;;;3.17;2.15;;;23.70;1.00;;;;;;5078895;28;20175;-82
2023/08/11 10:52:29;;;;;;;4.83;2.60;;;23.80;1.00;;;;;;5078861;28;20226;-84
2023/08/11 10:54:59;;;;;;;3.80;2.40;;;23.90;1.00;;;;;;5079818;28;20179;-84
2023/08/11 10:57:24;;;;;;;9.90;2.60;;;24.00;99.90;;;;;;5078779;28;20231;-84
2023/08/11 10:59:50;;;;;;;4.00;2.30;;;24.00;99.90;;;;;;5078596;28;20239;-82
2023/08/11 11:02:20;;;;;;;6.23;2.03;;;24.30;99.90;;;;;;5078676;28;20191;-83
2023/08/11 11:04:46;;;;;;;5.30;2.53;;;24.20;99.90;;;;;;5078604;28;20164;-84
2023/08/11 11:07:16;;;;;;;3.80;2.40;;;24.10;99.90;;;;;;5077410;28;20195;-84
2023/08/11 11:09:42;;;;;;;3.23;2.23;;;24.60;61.10;;;;;;5075967;28;20309;-84
2023/08/11 11:12:08;;;;;;;4.55;2.63;;;24.60;99.90;;;;;;5076949;28;20199;-83
2023/08/11 11:14:33;;;;;;;5.13;3.05;;;24.90;99.90;;;;;;5076296;28;20164;-83
2023/08/11 11:16:59;;;;;;;5.22;2.47;;;24.70;99.90;;;;;;5076508;28;20191;-83
2023/08/11 11:19:25;;;;;;;3.13;2.72;;;24.70;99.90;;;;;;5078461;28;20190;-86
2023/08/11 11:21:52;;;;;;;5.80;2.83;;;24.90;99.90;;;;;;5077432;28;20195;-84
2023/08/11 11:24:18;;;;;;;5.57;2.38;;;24.90;99.90;;;;;;5068768;28;20659;-83
2023/08/11 11:26:44;;;;;;;2.88;2.47;;;25.10;99.90;;;;;;5073497;28;20528;-84
2023/08/11 11:29:09;;;;;;;4.97;3.00;;;25.00;99.90;;;;;;5071554;28;20274;-84
2023/08/11 11:31:38;;;;;;;5.82;2.78;;;25.10;99.90;;;;;;5074428;28;20234;-83
2023/08/11 11:34:04;;;;;;;4.25;2.65;;;25.20;99.90;;;;;;5066025;28;20564;-83
2023/08/11 11:36:31;;;;;;;5.75;2.50;;;25.30;99.90;;;;;;5063362;28;20207;-84
2023/08/11 11:38:56;;;;;;;5.63;2.20;;;25.20;99.90;;;;;;5061593;28;20176;-84
2023/08/11 11:41:22;;;;;;;6.25;2.60;;;25.40;99.90;;;;;;5061737;28;20242;-84
2023/08/11 11:43:49;;;;;;;3.33;2.10;;;25.50;99.90;;;;;;5063334;28;20492;-84
2023/08/11 11:46:18;;;;;;;5.60;2.40;;;25.50;99.90;;;;;;5060738;28;20183;-84
2023/08/11 11:48:51;;;;;;;7.15;2.85;;;25.50;95.50;;;;;;5061218;28;20176;-84
2023/08/11 11:51:19;;;;;;;9.18;2.72;;;25.60;99.90;;;;;;5062577;28;20290;-84
2023/08/11 11:53:44;;;;;;;4.97;2.45;;;25.60;99.90;;;;;;5060216;28;20239;-84
2023/08/11 11:56:14;;;;;;;4.72;2.50;;;25.50;99.90;;;;;;5061523;28;20201;-83
2023/08/11 11:58:40;;;;;;;4.00;2.80;;;25.60;99.90;;;;;;5058563;28;20233;-84
2023/08/11 12:01:26;;;;;;;5.90;2.45;;;25.70;99.90;;;;;;5060397;28;20195;-84
2023/08/11 12:03:55;;;;;;;4.28;2.40;;;25.70;99.90;;;;;;5058432;28;20176;-83
2023/08/11 12:06:21;;;;;;;4.43;2.30;;;25.70;99.90;;;;;;5058605;28;20186;-83
2023/08/11 12:08:49;;;;;;;3.08;2.15;;;25.70;99.90;;;;;;5061919;28;20225;-84
2023/08/11 12:11:26;;;;;;;10.05;2.47;;;25.80;99.90;;;;;;5055655;28;20577;-82
2023/08/11 12:13:52;;;;;;;4.72;2.13;;;25.90;99.90;;;;;;5058886;28;20143;-83
2023/08/11 12:16:18;;;;;;;4.55;2.20;;;26.10;99.90;;;;;;5058575;28;20545;-83
2023/08/11 12:18:44;;;;;;;9.13;2.38;;;25.90;99.90;;;;;;5057435;28;20172;-84
2023/08/11 12:21:10;;;;;;;5.30;2.05;;;26.10;74.10;;;;;;5054713;28;20203;-83
2023/08/11 12:23:36;;;;;;;4.47;2.30;;;26.40;42.20;;;;;;5058810;28;20255;-83
2023/08/11 12:26:03;;;;;;;4.40;2.90;;;26.40;36.30;;;;;;5056902;28;20199;-84
2023/08/11 12:28:28;;;;;;;2.60;2.05;;;26.50;1.00;;;;;;5059569;28;20678;-83
2023/08/11 12:30:54;;;;;;;8.60;2.38;;;26.50;96.60;;;;;;5061795;28;20198;-84
2023/08/11 12:33:20;;;;;;;4.05;2.15;;;26.60;99.90;;;;;;5057765;28;20179;-84
2023/08/11 12:35:47;;;;;;;8.70;2.78;;;26.60;99.90;;;;;;5058174;28;20262;-84
2023/08/11 12:38:12;;;;;;;2.28;2.00;;;26.60;99.90;;;;;;5059244;28;20588;-85
2023/08/11 12:40:42;;;;;;;3.75;2.42;;;26.60;14.50;;;;;;5057311;28;20203;-83
2023/08/11 12:43:09;;;;;;;3.13;2.25;;;26.70;1.00;;;;;;5060958;28;20168;-84
2023/08/11 12:45:35;;;;;;;7.30;2.28;;;26.70;22.90;;;;;;5060747;28;20577;-83